sensor_id;sensor_type;location;lat;lon;timestamp;temperature;humidity
53422;DHT22;39319;52.944;5.928;2023-05-10T00:02:09;15.30;99.90
53422;DHT22;39319;52.944;5.928;2023-05-10T00:04:35;15.30;99.90
53422;DHT22;39319;52.944;5.928;2023-05-10T00:07:00;15.30;99.90
53422;DHT22;39319;52.944;5.928;2023-05-10T00:09:26;15.30;99.90
53422;DHT22;39319;52.944;5.928;2023-05-10T00:11:52;15.30;99.90
53422;DHT22;39319;52.944;5.928;2023-05-10T00:14:18;15.30;99.90
53422;DHT22;39319;52.944;5.928;2023-05-10T00:16:44;15.20;99.90
53422;DHT22;39319;52.944;5.928;2023-05-10T00:19:10;15.30;99.90
53422;DHT22;39319;52.944;5.928;2023-05-10T00:21:36;15.20;99.90
53422;DHT22;39319;52.944;5.928;2023-05-10T00:24:02;15.30;99.90
53422;DHT22;39319;52.944;5.928;2023-05-10T00:26:27;15.20;99.90
53422;DHT22;39319;52.944;5.928;2023-05-10T00:28:53;15.30;99.90
53422;DHT22;39319;52.944;5.928;2023-05-10T00:31:19;15.30;99.90
53422;DHT22;39319;52.944;5.928;2023-05-10T00:33:44;15.20;99.90
53422;DHT22;39319;52.944;5.928;2023-05-10T00:36:10;15.20;99.90
53422;DHT22;39319;52.944;5.928;2023-05-10T00:38:36;15.20;99.90
53422;DHT22;39319;52.944;5.928;2023-05-10T00:41:02;15.30;99.90
53422;DHT22;39319;52.944;5.928;2023-05-10T00:43:28;15.20;99.90
53422;DHT22;39319;52.944;5.928;2023-05-10T00:45:54;15.20;99.90
53422;DHT22;39319;52.944;5.928;2023-05-10T00:48:22;15.20;99.90
53422;DHT22;39319;52.944;5.928;2023-05-10T00:50:48;15.30;99.90
53422;DHT22;39319;52.944;5.928;2023-05-10T00:53:14;15.20;99.90
53422;DHT22;39319;52.944;5.928;2023-05-10T00:55:40;15.30;99.90
53422;DHT22;39319;52.944;5.928;2023-05-10T00:58:07;15.30;99.90
53422;DHT22;39319;52.944;5.928;2023-05-10T01:00:33;15.30;99.90
53422;DHT22;39319;52.944;5.928;2023-05-10T01:02:59;15.30;99.90
53422;DHT22;39319;52.944;5.928;2023-05-10T01:05:26;15.20;99.90
53422;DHT22;39319;52.944;5.928;2023-05-10T01:07:52;15.20;99.90
53422;DHT22;39319;52.944;5.928;2023-05-10T01:10:18;15.20;99.90
53422;DHT22;39319;52.944;5.928;2023-05-10T01:12:46;15.20;99.90
53422;DHT22;39319;52.944;5.928;2023-05-10T01:15:13;15.20;99.90
53422;DHT22;39319;52.944;5.928;2023-05-10T01:17:42;15.20;99.90
53422;DHT22;39319;52.944;5.928;2023-05-10T01:20:11;15.20;99.90
53422;DHT22;39319;52.944;5.928;2023-05-10T01:34:25;15.20;99.90
53422;DHT22;39319;52.944;5.928;2023-05-10T01:37:09;15.20;99.90
53422;DHT22;39319;52.944;5.928;2023-05-10T01:39:55;15.20;99.90
53422;DHT22;39319;52.944;5.928;2023-05-10T01:42:26;15.20;99.90
53422;DHT22;39319;52.944;5.928;2023-05-10T01:45:00;15.20;99.90
53422;DHT22;39319;52.944;5.928;2023-05-10T01:49:55;15.20;99.90
53422;DHT22;39319;52.944;5.928;2023-05-10T01:52:26;14.80;99.90
53422;DHT22;39319;52.944;5.928;2023-05-10T01:55:00;15.10;99.90
53422;DHT22;39319;52.944;5.928;2023-05-10T01:57:35;15.20;99.90
53422;DHT22;39319;52.944;5.928;2023-05-10T02:00:02;15.20;99.90
53422;DHT22;39319;52.944;5.928;2023-05-10T02:02:31;15.20;99.90
53422;DHT22;39319;52.944;5.928;2023-05-10T02:04:59;15.10;99.90
53422;DHT22;39319;52.944;5.928;2023-05-10T02:07:26;15.10;99.90
53422;DHT22;39319;52.944;5.928;2023-05-10T02:09:55;15.10;99.90
53422;DHT22;39319;52.944;5.928;2023-05-10T02:12:22;15.20;99.90
53422;DHT22;39319;52.944;5.928;2023-05-10T02:14:50;15.10;99.90
53422;DHT22;39319;52.944;5.928;2023-05-10T02:17:16;15.20;99.90
53422;DHT22;39319;52.944;5.928;2023-05-10T02:19:43;15.20;99.90
53422;DHT22;39319;52.944;5.928;2023-05-10T02:22:09;15.10;99.90
53422;DHT22;39319;52.944;5.928;2023-05-10T02:24:36;15.10;99.90
53422;DHT22;39319;52.944;5.928;2023-05-10T02:27:03;15.10;99.90
53422;DHT22;39319;52.944;5.928;2023-05-10T02:29:31;15.00;99.90
53422;DHT22;39319;52.944;5.928;2023-05-10T02:31:58;15.00;99.90
53422;DHT22;39319;52.944;5.928;2023-05-10T02:34:26;15.10;99.90
53422;DHT22;39319;52.944;5.928;2023-05-10T02:36:53;15.10;99.90
53422;DHT22;39319;52.944;5.928;2023-05-10T02:39:23;15.00;99.90
53422;DHT22;39319;52.944;5.928;2023-05-10T02:41:50;15.00;99.90
53422;DHT22;39319;52.944;5.928;2023-05-10T02:44:19;15.00;99.90
53422;DHT22;39319;52.944;5.928;2023-05-10T02:46:45;15.00;99.90
53422;DHT22;39319;52.944;5.928;2023-05-10T02:49:12;15.00;99.90
53422;DHT22;39319;52.944;5.928;2023-05-10T02:51:42;15.00;99.90
53422;DHT22;39319;52.944;5.928;2023-05-10T02:54:19;15.00;99.90
53422;DHT22;39319;52.944;5.928;2023-05-10T02:56:57;15.00;99.90
53422;DHT22;39319;52.944;5.928;2023-05-10T02:59:23;15.00;99.90
53422;DHT22;39319;52.944;5.928;2023-05-10T03:01:48;15.10;99.90
53422;DHT22;39319;52.944;5.928;2023-05-10T03:04:14;15.00;99.90
53422;DHT22;39319;52.944;5.928;2023-05-10T03:06:41;15.00;99.90
53422;DHT22;39319;52.944;5.928;2023-05-10T03:09:07;15.00;99.90
53422;DHT22;39319;52.944;5.928;2023-05-10T03:11:40;15.00;99.90
53422;DHT22;39319;52.944;5.928;2023-05-10T03:17:09;15.00;99.90
53422;DHT22;39319;52.944;5.928;2023-05-10T03:22:07;15.00;99.90
53422;DHT22;39319;52.944;5.928;2023-05-10T03:24:35;15.00;99.90
53422;DHT22;39319;52.944;5.928;2023-05-10T03:27:02;15.00;99.90
53422;DHT22;39319;52.944;5.928;2023-05-10T03:29:30;15.00;99.90
53422;DHT22;39319;52.944;5.928;2023-05-10T03:32:01;15.00;99.90
53422;DHT22;39319;52.944;5.928;2023-05-10T03:34:30;14.90;99.90
53422;DHT22;39319;52.944;5.928;2023-05-10T03:36:56;15.00;99.90
53422;DHT22;39319;52.944;5.928;2023-05-10T03:39:22;14.90;99.90
53422;DHT22;39319;52.944;5.928;2023-05-10T03:41:48;14.90;99.90
53422;DHT22;39319;52.944;5.928;2023-05-10T03:44:14;14.90;99.90
53422;DHT22;39319;52.944;5.928;2023-05-10T03:46:39;15.00;99.90
53422;DHT22;39319;52.944;5.928;2023-05-10T03:49:05;15.00;99.90
53422;DHT22;39319;52.944;5.928;2023-05-10T03:51:31;15.00;99.90
53422;DHT22;39319;52.944;5.928;2023-05-10T03:53:57;14.90;99.90
53422;DHT22;39319;52.944;5.928;2023-05-10T03:56:22;14.90;99.90
53422;DHT22;39319;52.944;5.928;2023-05-10T03:58:48;15.00;99.90
53422;DHT22;39319;52.944;5.928;2023-05-10T04:01:16;15.00;99.90
53422;DHT22;39319;52.944;5.928;2023-05-10T04:03:44;14.90;99.90
53422;DHT22;39319;52.944;5.928;2023-05-10T04:06:10;14.90;99.90
53422;DHT22;39319;52.944;5.928;2023-05-10T04:08:37;15.00;99.90
53422;DHT22;39319;52.944;5.928;2023-05-10T04:11:11;15.00;99.90
53422;DHT22;39319;52.944;5.928;2023-05-10T04:13:37;14.90;99.90
53422;DHT22;39319;52.944;5.928;2023-05-10T04:16:03;14.90;99.90
53422;DHT22;39319;52.944;5.928;2023-05-10T04:18:30;15.00;99.90
53422;DHT22;39319;52.944;5.928;2023-05-10T04:20:55;14.90;99.90
53422;DHT22;39319;52.944;5.928;2023-05-10T04:23:21;14.90;99.90
53422;DHT22;39319;52.944;5.928;2023-05-10T04:25:47;15.00;99.90
53422;DHT22;39319;52.944;5.928;2023-05-10T04:28:15;15.00;99.90
53422;DHT22;39319;52.944;5.928;2023-05-10T04:30:41;15.00;99.90
53422;DHT22;39319;52.944;5.928;2023-05-10T04:33:06;14.90;99.90
53422;DHT22;39319;52.944;5.928;2023-05-10T04:35:32;14.90;99.90
53422;DHT22;39319;52.944;5.928;2023-05-10T04:37:58;14.90;99.90
53422;DHT22;39319;52.944;5.928;2023-05-10T04:40:23;14.90;99.90
53422;DHT22;39319;52.944;5.928;2023-05-10T04:42:49;14.90;99.90
53422;DHT22;39319;52.944;5.928;2023-05-10T04:45:15;14.90;99.90
53422;DHT22;39319;52.944;5.928;2023-05-10T04:47:41;14.90;99.90
53422;DHT22;39319;52.944;5.928;2023-05-10T04:50:07;14.90;99.90
53422;DHT22;39319;52.944;5.928;2023-05-10T04:52:33;14.90;99.90
53422;DHT22;39319;52.944;5.928;2023-05-10T04:54:59;15.00;99.90
53422;DHT22;39319;52.944;5.928;2023-05-10T04:57:24;14.90;99.90
53422;DHT22;39319;52.944;5.928;2023-05-10T04:59:50;14.90;99.90
53422;DHT22;39319;52.944;5.928;2023-05-10T05:02:16;14.90;99.90
53422;DHT22;39319;52.944;5.928;2023-05-10T05:04:42;14.90;99.90
53422;DHT22;39319;52.944;5.928;2023-05-10T05:07:07;14.90;99.90
53422;DHT22;39319;52.944;5.928;2023-05-10T05:09:33;14.90;99.90
53422;DHT22;39319;52.944;5.928;2023-05-10T05:11:59;14.80;99.90
53422;DHT22;39319;52.944;5.928;2023-05-10T05:14:24;14.90;99.90
53422;DHT22;39319;52.944;5.928;2023-05-10T05:16:53;14.90;99.90
53422;DHT22;39319;52.944;5.928;2023-05-10T05:19:21;14.90;99.90
53422;DHT22;39319;52.944;5.928;2023-05-10T05:21:48;14.90;99.90
53422;DHT22;39319;52.944;5.928;2023-05-10T05:24:13;14.90;99.90
53422;DHT22;39319;52.944;5.928;2023-05-10T05:26:39;15.00;99.90
53422;DHT22;39319;52.944;5.928;2023-05-10T05:29:05;14.80;99.90
53422;DHT22;39319;52.944;5.928;2023-05-10T05:31:30;14.90;99.90
53422;DHT22;39319;52.944;5.928;2023-05-10T05:33:56;14.90;99.90
53422;DHT22;39319;52.944;5.928;2023-05-10T05:36:22;15.00;99.90
53422;DHT22;39319;52.944;5.928;2023-05-10T05:38:47;15.00;99.90
53422;DHT22;39319;52.944;5.928;2023-05-10T05:41:13;14.90;99.90
53422;DHT22;39319;52.944;5.928;2023-05-10T05:43:39;14.90;99.90
53422;DHT22;39319;52.944;5.928;2023-05-10T05:46:05;14.90;99.90
53422;DHT22;39319;52.944;5.928;2023-05-10T05:48:31;14.90;99.90
53422;DHT22;39319;52.944;5.928;2023-05-10T05:50:59;14.90;99.90
53422;DHT22;39319;52.944;5.928;2023-05-10T05:53:24;15.00;99.90
53422;DHT22;39319;52.944;5.928;2023-05-10T05:55:54;15.10;99.90
53422;DHT22;39319;52.944;5.928;2023-05-10T05:58:21;15.00;99.90
53422;DHT22;39319;52.944;5.928;2023-05-10T06:00:47;15.00;99.90
53422;DHT22;39319;52.944;5.928;2023-05-10T06:03:12;15.00;99.90
53422;DHT22;39319;52.944;5.928;2023-05-10T06:05:38;15.00;99.90
53422;DHT22;39319;52.944;5.928;2023-05-10T06:08:04;15.10;99.90
53422;DHT22;39319;52.944;5.928;2023-05-10T06:10:29;15.10;99.90
53422;DHT22;39319;52.944;5.928;2023-05-10T06:12:56;15.00;99.90
53422;DHT22;39319;52.944;5.928;2023-05-10T06:15:21;15.20;99.90
53422;DHT22;39319;52.944;5.928;2023-05-10T06:17:47;15.20;99.90
53422;DHT22;39319;52.944;5.928;2023-05-10T06:20:15;15.20;99.90
53422;DHT22;39319;52.944;5.928;2023-05-10T06:22:41;15.30;99.90
53422;DHT22;39319;52.944;5.928;2023-05-10T06:25:08;15.20;99.90
53422;DHT22;39319;52.944;5.928;2023-05-10T06:27:34;15.20;99.90
53422;DHT22;39319;52.944;5.928;2023-05-10T06:29:59;15.30;99.90
53422;DHT22;39319;52.944;5.928;2023-05-10T06:32:25;15.30;99.90
53422;DHT22;39319;52.944;5.928;2023-05-10T06:34:51;15.20;99.90
53422;DHT22;39319;52.944;5.928;2023-05-10T06:37:17;15.20;99.90
53422;DHT22;39319;52.944;5.928;2023-05-10T06:39:43;15.20;99.90
53422;DHT22;39319;52.944;5.928;2023-05-10T06:42:09;15.20;99.90
53422;DHT22;39319;52.944;5.928;2023-05-10T06:44:35;15.20;99.90
53422;DHT22;39319;52.944;5.928;2023-05-10T06:47:00;15.20;99.90
53422;DHT22;39319;52.944;5.928;2023-05-10T06:49:26;15.20;99.90
53422;DHT22;39319;52.944;5.928;2023-05-10T06:51:52;15.20;99.90
53422;DHT22;39319;52.944;5.928;2023-05-10T06:54:20;15.20;99.90
53422;DHT22;39319;52.944;5.928;2023-05-10T06:56:46;15.20;99.90
53422;DHT22;39319;52.944;5.928;2023-05-10T06:59:12;15.30;99.90
53422;DHT22;39319;52.944;5.928;2023-05-10T07:01:39;15.30;99.90
53422;DHT22;39319;52.944;5.928;2023-05-10T07:04:05;15.40;99.90
53422;DHT22;39319;52.944;5.928;2023-05-10T07:06:32;15.40;99.90
53422;DHT22;39319;52.944;5.928;2023-05-10T07:08:59;15.40;99.90
53422;DHT22;39319;52.944;5.928;2023-05-10T07:11:25;15.50;99.90
53422;DHT22;39319;52.944;5.928;2023-05-10T07:13:52;15.40;99.90
53422;DHT22;39319;52.944;5.928;2023-05-10T07:16:18;15.40;99.90
53422;DHT22;39319;52.944;5.928;2023-05-10T07:18:43;15.50;99.90
53422;DHT22;39319;52.944;5.928;2023-05-10T07:21:09;15.50;99.90
53422;DHT22;39319;52.944;5.928;2023-05-10T07:23:35;15.90;99.90
53422;DHT22;39319;52.944;5.928;2023-05-10T07:26:01;15.50;99.90
53422;DHT22;39319;52.944;5.928;2023-05-10T07:28:29;15.50;99.90
53422;DHT22;39319;52.944;5.928;2023-05-10T07:30:55;15.50;99.90
53422;DHT22;39319;52.944;5.928;2023-05-10T07:33:20;15.60;99.90
53422;DHT22;39319;52.944;5.928;2023-05-10T07:35:46;14.00;99.90
53422;DHT22;39319;52.944;5.928;2023-05-10T07:38:12;15.50;99.90
53422;DHT22;39319;52.944;5.928;2023-05-10T07:40:39;15.50;99.90
53422;DHT22;39319;52.944;5.928;2023-05-10T07:43:04;15.50;99.90
53422;DHT22;39319;52.944;5.928;2023-05-10T07:45:30;15.50;99.90
53422;DHT22;39319;52.944;5.928;2023-05-10T07:47:56;15.60;99.90
53422;DHT22;39319;52.944;5.928;2023-05-10T07:50:21;15.50;99.90
53422;DHT22;39319;52.944;5.928;2023-05-10T07:52:47;15.50;99.90
53422;DHT22;39319;52.944;5.928;2023-05-10T07:55:13;15.50;99.90
53422;DHT22;39319;52.944;5.928;2023-05-10T07:57:39;15.50;99.90
53422;DHT22;39319;52.944;5.928;2023-05-10T08:00:06;15.50;99.90
53422;DHT22;39319;52.944;5.928;2023-05-10T08:02:34;15.50;99.90
53422;DHT22;39319;52.944;5.928;2023-05-10T08:05:00;15.50;99.90
53422;DHT22;39319;52.944;5.928;2023-05-10T08:07:25;15.60;99.90
53422;DHT22;39319;52.944;5.928;2023-05-10T08:09:51;15.50;99.90
53422;DHT22;39319;52.944;5.928;2023-05-10T08:12:17;15.60;99.90
53422;DHT22;39319;52.944;5.928;2023-05-10T08:14:42;15.50;99.90
53422;DHT22;39319;52.944;5.928;2023-05-10T08:17:08;15.50;99.90
53422;DHT22;39319;52.944;5.928;2023-05-10T08:19:34;15.60;99.90
53422;DHT22;39319;52.944;5.928;2023-05-10T08:22:00;15.60;99.90
53422;DHT22;39319;52.944;5.928;2023-05-10T08:24:26;15.60;99.90
53422;DHT22;39319;52.944;5.928;2023-05-10T08:26:51;15.60;99.90
53422;DHT22;39319;52.944;5.928;2023-05-10T08:29:17;15.60;99.90
53422;DHT22;39319;52.944;5.928;2023-05-10T08:31:43;15.70;99.90
53422;DHT22;39319;52.944;5.928;2023-05-10T08:34:09;15.80;99.90
53422;DHT22;39319;52.944;5.928;2023-05-10T08:36:34;15.80;99.90
53422;DHT22;39319;52.944;5.928;2023-05-10T08:39:00;15.80;99.90
53422;DHT22;39319;52.944;5.928;2023-05-10T08:41:26;15.90;99.90
53422;DHT22;39319;52.944;5.928;2023-05-10T08:43:53;16.00;99.90
53422;DHT22;39319;52.944;5.928;2023-05-10T08:46:20;16.10;99.90
53422;DHT22;39319;52.944;5.928;2023-05-10T08:48:47;16.10;99.90
53422;DHT22;39319;52.944;5.928;2023-05-10T08:51:22;16.10;99.90
53422;DHT22;39319;52.944;5.928;2023-05-10T08:53:50;16.20;99.90
53422;DHT22;39319;52.944;5.928;2023-05-10T08:56:16;16.20;99.90
53422;DHT22;39319;52.944;5.928;2023-05-10T08:58:43;16.20;99.90
53422;DHT22;39319;52.944;5.928;2023-05-10T09:01:09;16.20;99.90
53422;DHT22;39319;52.944;5.928;2023-05-10T09:03:38;16.30;99.90
53422;DHT22;39319;52.944;5.928;2023-05-10T09:06:04;16.20;99.90
53422;DHT22;39319;52.944;5.928;2023-05-10T09:08:30;16.30;99.90
53422;DHT22;39319;52.944;5.928;2023-05-10T09:10:57;16.30;99.90
53422;DHT22;39319;52.944;5.928;2023-05-10T09:13:23;16.30;99.90
53422;DHT22;39319;52.944;5.928;2023-05-10T09:15:51;16.30;99.90
53422;DHT22;39319;52.944;5.928;2023-05-10T09:18:17;16.30;99.90
53422;DHT22;39319;52.944;5.928;2023-05-10T09:20:42;16.30;99.90
53422;DHT22;39319;52.944;5.928;2023-05-10T09:23:08;16.30;99.90
53422;DHT22;39319;52.944;5.928;2023-05-10T09:25:34;16.40;99.90
53422;DHT22;39319;52.944;5.928;2023-05-10T09:28:01;16.30;99.90
53422;DHT22;39319;52.944;5.928;2023-05-10T09:30:31;16.40;99.90
53422;DHT22;39319;52.944;5.928;2023-05-10T09:32:58;16.40;99.90
53422;DHT22;39319;52.944;5.928;2023-05-10T09:35:26;16.50;99.90
53422;DHT22;39319;52.944;5.928;2023-05-10T09:37:54;16.50;99.90
53422;DHT22;39319;52.944;5.928;2023-05-10T09:40:22;16.50;99.80
53422;DHT22;39319;52.944;5.928;2023-05-10T09:42:56;16.50;99.70
53422;DHT22;39319;52.944;5.928;2023-05-10T09:45:24;16.50;99.80
53422;DHT22;39319;52.944;5.928;2023-05-10T09:47:50;16.50;99.90
53422;DHT22;39319;52.944;5.928;2023-05-10T09:50:16;16.60;99.90
53422;DHT22;39319;52.944;5.928;2023-05-10T09:55:14;16.70;99.90
53422;DHT22;39319;52.944;5.928;2023-05-10T09:57:40;16.80;99.90
53422;DHT22;39319;52.944;5.928;2023-05-10T10:00:07;16.80;99.50
53422;DHT22;39319;52.944;5.928;2023-05-10T10:02:33;16.80;99.80
53422;DHT22;39319;52.944;5.928;2023-05-10T10:05:02;16.80;99.90
53422;DHT22;39319;52.944;5.928;2023-05-10T10:07:29;16.90;99.90
53422;DHT22;39319;52.944;5.928;2023-05-10T10:09:55;17.00;99.30
53422;DHT22;39319;52.944;5.928;2023-05-10T10:12:21;17.00;99.20
53422;DHT22;39319;52.944;5.928;2023-05-10T10:14:47;17.00;99.50
53422;DHT22;39319;52.944;5.928;2023-05-10T10:17:16;17.10;99.60
53422;DHT22;39319;52.944;5.928;2023-05-10T10:19:42;17.10;99.10
53422;DHT22;39319;52.944;5.928;2023-05-10T10:22:09;17.10;99.00
53422;DHT22;39319;52.944;5.928;2023-05-10T10:24:38;17.10;98.90
53422;DHT22;39319;52.944;5.928;2023-05-10T10:35:32;17.00;99.00
53422;DHT22;39319;52.944;5.928;2023-05-10T10:37:58;16.90;99.30
53422;DHT22;39319;52.944;5.928;2023-05-10T10:40:26;17.00;99.10
53422;DHT22;39319;52.944;5.928;2023-05-10T10:42:55;16.90;98.80
53422;DHT22;39319;52.944;5.928;2023-05-10T10:45:21;16.90;99.00
53422;DHT22;39319;52.944;5.928;2023-05-10T10:47:47;16.90;99.10
53422;DHT22;39319;52.944;5.928;2023-05-10T10:50:13;16.90;99.10
53422;DHT22;39319;52.944;5.928;2023-05-10T10:55:19;16.90;98.90
53422;DHT22;39319;52.944;5.928;2023-05-10T10:57:56;16.80;98.60
53422;DHT22;39319;52.944;5.928;2023-05-10T11:00:35;16.80;99.10
53422;DHT22;39319;52.944;5.928;2023-05-10T11:03:12;16.80;99.40
53422;DHT22;39319;52.944;5.928;2023-05-10T11:05:49;16.90;99.40
53422;DHT22;39319;52.944;5.928;2023-05-10T11:08:16;16.90;99.40
53422;DHT22;39319;52.944;5.928;2023-05-10T11:11:03;17.00;99.30
53422;DHT22;39319;52.944;5.928;2023-05-10T11:13:31;16.90;99.10
53422;DHT22;39319;52.944;5.928;2023-05-10T11:15:57;16.90;98.90
53422;DHT22;39319;52.944;5.928;2023-05-10T11:18:26;16.90;98.90
53422;DHT22;39319;52.944;5.928;2023-05-10T11:21:00;16.90;98.90
53422;DHT22;39319;52.944;5.928;2023-05-10T11:26:12;16.90;98.80
53422;DHT22;39319;52.944;5.928;2023-05-10T11:28:46;17.00;98.60
53422;DHT22;39319;52.944;5.928;2023-05-10T11:31:18;17.00;99.00
53422;DHT22;39319;52.944;5.928;2023-05-10T11:33:45;17.00;99.20
53422;DHT22;39319;52.944;5.928;2023-05-10T11:36:15;17.00;99.10
53422;DHT22;39319;52.944;5.928;2023-05-10T11:38:42;17.10;98.90
53422;DHT22;39319;52.944;5.928;2023-05-10T11:41:11;17.10;98.50
53422;DHT22;39319;52.944;5.928;2023-05-10T11:43:41;17.10;98.60
53422;DHT22;39319;52.944;5.928;2023-05-10T11:46:12;17.20;98.50
53422;DHT22;39319;52.944;5.928;2023-05-10T11:48:39;17.30;99.00
53422;DHT22;39319;52.944;5.928;2023-05-10T11:51:06;17.20;98.50
53422;DHT22;39319;52.944;5.928;2023-05-10T11:53:33;17.20;98.00
53422;DHT22;39319;52.944;5.928;2023-05-10T11:56:09;17.30;98.60
53422;DHT22;39319;52.944;5.928;2023-05-10T11:58:37;17.30;98.30
53422;DHT22;39319;52.944;5.928;2023-05-10T12:01:04;17.30;98.00
53422;DHT22;39319;52.944;5.928;2023-05-10T12:03:31;17.30;98.10
53422;DHT22;39319;52.944;5.928;2023-05-10T12:05:58;17.30;98.10
53422;DHT22;39319;52.944;5.928;2023-05-10T12:08:28;17.30;98.20
53422;DHT22;39319;52.944;5.928;2023-05-10T12:11:04;17.30;97.90
53422;DHT22;39319;52.944;5.928;2023-05-10T12:13:30;17.30;97.80
53422;DHT22;39319;52.944;5.928;2023-05-10T12:15:59;17.40;97.90
53422;DHT22;39319;52.944;5.928;2023-05-10T12:18:26;17.40;97.90
53422;DHT22;39319;52.944;5.928;2023-05-10T12:20:52;17.50;97.80
53422;DHT22;39319;52.944;5.928;2023-05-10T12:23:21;17.40;98.10
53422;DHT22;39319;52.944;5.928;2023-05-10T12:25:47;17.50;97.90
53422;DHT22;39319;52.944;5.928;2023-05-10T12:28:12;17.50;98.10
53422;DHT22;39319;52.944;5.928;2023-05-10T12:30:39;17.60;97.70
53422;DHT22;39319;52.944;5.928;2023-05-10T12:35:44;17.60;97.40
53422;DHT22;39319;52.944;5.928;2023-05-10T12:38:32;17.50;97.60
53422;DHT22;39319;52.944;5.928;2023-05-10T12:41:00;17.70;97.30
53422;DHT22;39319;52.944;5.928;2023-05-10T12:43:26;17.70;97.20
53422;DHT22;39319;52.944;5.928;2023-05-10T12:45:52;17.70;97.20
53422;DHT22;39319;52.944;5.928;2023-05-10T12:48:18;17.70;97.20
53422;DHT22;39319;52.944;5.928;2023-05-10T12:50:45;17.80;97.00
53422;DHT22;39319;52.944;5.928;2023-05-10T12:53:10;17.80;97.30
53422;DHT22;39319;52.944;5.928;2023-05-10T12:55:36;17.90;97.20
53422;DHT22;39319;52.944;5.928;2023-05-10T12:58:02;17.90;96.80
53422;DHT22;39319;52.944;5.928;2023-05-10T13:00:28;17.90;96.70
53422;DHT22;39319;52.944;5.928;2023-05-10T13:02:55;18.00;96.80
53422;DHT22;39319;52.944;5.928;2023-05-10T13:05:21;17.90;97.00
53422;DHT22;39319;52.944;5.928;2023-05-10T13:07:47;18.00;97.00
53422;DHT22;39319;52.944;5.928;2023-05-10T13:10:12;18.00;96.80
53422;DHT22;39319;52.944;5.928;2023-05-10T13:12:38;17.90;96.90
53422;DHT22;39319;52.944;5.928;2023-05-10T13:15:04;17.90;96.90
53422;DHT22;39319;52.944;5.928;2023-05-10T13:17:30;18.00;96.60
53422;DHT22;39319;52.944;5.928;2023-05-10T13:19:56;18.00;96.20
53422;DHT22;39319;52.944;5.928;2023-05-10T13:22:21;18.00;96.00
53422;DHT22;39319;52.944;5.928;2023-05-10T13:24:47;18.00;95.80
53422;DHT22;39319;52.944;5.928;2023-05-10T13:27:13;18.00;96.00
53422;DHT22;39319;52.944;5.928;2023-05-10T13:29:39;18.00;95.90
53422;DHT22;39319;52.944;5.928;2023-05-10T13:32:04;18.10;95.70
53422;DHT22;39319;52.944;5.928;2023-05-10T13:34:30;18.10;95.60
53422;DHT22;39319;52.944;5.928;2023-05-10T13:36:56;18.10;96.10
53422;DHT22;39319;52.944;5.928;2023-05-10T13:39:22;18.30;96.20
53422;DHT22;39319;52.944;5.928;2023-05-10T13:41:48;18.30;96.50
53422;DHT22;39319;52.944;5.928;2023-05-10T13:44:14;18.50;96.50
53422;DHT22;39319;52.944;5.928;2023-05-10T13:46:43;18.70;96.10
53422;DHT22;39319;52.944;5.928;2023-05-10T13:49:09;18.80;96.10
53422;DHT22;39319;52.944;5.928;2023-05-10T13:51:35;19.00;96.00
53422;DHT22;39319;52.944;5.928;2023-05-10T13:54:02;19.10;95.00
53422;DHT22;39319;52.944;5.928;2023-05-10T13:56:28;19.20;94.50
53422;DHT22;39319;52.944;5.928;2023-05-10T13:58:53;19.30;93.80
53422;DHT22;39319;52.944;5.928;2023-05-10T14:01:19;19.30;94.20
53422;DHT22;39319;52.944;5.928;2023-05-10T14:03:45;19.30;93.90
53422;DHT22;39319;52.944;5.928;2023-05-10T14:06:10;19.30;93.60
53422;DHT22;39319;52.944;5.928;2023-05-10T14:08:36;19.30;93.50
53422;DHT22;39319;52.944;5.928;2023-05-10T14:11:02;19.30;93.90
53422;DHT22;39319;52.944;5.928;2023-05-10T14:13:28;19.30;94.20
53422;DHT22;39319;52.944;5.928;2023-05-10T14:15:54;19.30;94.00
53422;DHT22;39319;52.944;5.928;2023-05-10T14:18:20;19.30;93.60
53422;DHT22;39319;52.944;5.928;2023-05-10T14:20:46;19.20;93.60
53422;DHT22;39319;52.944;5.928;2023-05-10T14:23:12;19.10;94.00
53422;DHT22;39319;52.944;5.928;2023-05-10T14:25:41;19.10;94.10
53422;DHT22;39319;52.944;5.928;2023-05-10T14:28:06;19.00;93.90
53422;DHT22;39319;52.944;5.928;2023-05-10T14:30:32;19.00;93.90
53422;DHT22;39319;52.944;5.928;2023-05-10T14:33:02;18.90;93.60
53422;DHT22;39319;52.944;5.928;2023-05-10T14:35:28;18.80;93.90
53422;DHT22;39319;52.944;5.928;2023-05-10T14:37:56;18.80;94.30
53422;DHT22;39319;52.944;5.928;2023-05-10T14:40:22;18.70;94.00
53422;DHT22;39319;52.944;5.928;2023-05-10T14:42:48;18.70;94.50
53422;DHT22;39319;52.944;5.928;2023-05-10T14:45:13;18.60;94.90
53422;DHT22;39319;52.944;5.928;2023-05-10T14:47:39;18.50;95.00
53422;DHT22;39319;52.944;5.928;2023-05-10T14:50:05;18.40;94.50
53422;DHT22;39319;52.944;5.928;2023-05-10T14:52:31;18.40;94.50
53422;DHT22;39319;52.944;5.928;2023-05-10T14:54:57;18.30;94.70
53422;DHT22;39319;52.944;5.928;2023-05-10T14:57:24;18.20;95.10
53422;DHT22;39319;52.944;5.928;2023-05-10T14:59:50;18.20;95.20
53422;DHT22;39319;52.944;5.928;2023-05-10T15:02:15;18.10;95.50
53422;DHT22;39319;52.944;5.928;2023-05-10T15:04:41;18.10;95.30
53422;DHT22;39319;52.944;5.928;2023-05-10T15:07:07;18.00;95.40
53422;DHT22;39319;52.944;5.928;2023-05-10T15:09:33;18.00;95.60
53422;DHT22;39319;52.944;5.928;2023-05-10T15:12:01;18.00;95.50
53422;DHT22;39319;52.944;5.928;2023-05-10T15:14:26;17.90;95.40
53422;DHT22;39319;52.944;5.928;2023-05-10T15:16:52;17.90;95.60
53422;DHT22;39319;52.944;5.928;2023-05-10T15:19:19;17.90;95.50
53422;DHT22;39319;52.944;5.928;2023-05-10T15:21:45;17.80;95.20
53422;DHT22;39319;52.944;5.928;2023-05-10T15:24:11;17.80;95.20
53422;DHT22;39319;52.944;5.928;2023-05-10T15:26:37;17.70;95.10
53422;DHT22;39319;52.944;5.928;2023-05-10T15:29:02;17.70;95.30
53422;DHT22;39319;52.944;5.928;2023-05-10T15:31:28;17.60;95.80
53422;DHT22;39319;52.944;5.928;2023-05-10T15:33:57;17.60;95.60
53422;DHT22;39319;52.944;5.928;2023-05-10T15:36:26;17.60;95.60
53422;DHT22;39319;52.944;5.928;2023-05-10T15:38:53;17.60;96.00
53422;DHT22;39319;52.944;5.928;2023-05-10T15:41:19;17.60;96.30
53422;DHT22;39319;52.944;5.928;2023-05-10T15:43:45;17.50;96.30
53422;DHT22;39319;52.944;5.928;2023-05-10T15:46:10;17.60;96.40
53422;DHT22;39319;52.944;5.928;2023-05-10T15:48:36;17.50;96.50
53422;DHT22;39319;52.944;5.928;2023-05-10T15:51:02;17.50;96.60
53422;DHT22;39319;52.944;5.928;2023-05-10T15:53:30;17.50;96.60
53422;DHT22;39319;52.944;5.928;2023-05-10T15:55:56;17.50;96.60
53422;DHT22;39319;52.944;5.928;2023-05-10T15:58:22;17.60;96.80
53422;DHT22;39319;52.944;5.928;2023-05-10T16:00:47;17.60;96.70
53422;DHT22;39319;52.944;5.928;2023-05-10T16:03:13;17.50;96.40
53422;DHT22;39319;52.944;5.928;2023-05-10T16:05:39;17.50;96.50
53422;DHT22;39319;52.944;5.928;2023-05-10T16:08:04;17.60;96.50